COOK1: Arkansas River Nr Coolidge, KS

                                SHEF ID:       COOK1     ARKANSAS R NR COOLIDGE, KS
STATION TYPE:
Regulating: Stage = 8.00, Flow = 2028

PRECIP STAGE STAGE(2) RIV-FLOW WTR-TEMP CONDUCT BAT-LOAD
in ft ft cfs F umho/cm volt
Ccp-Rev Ccp-Rev Ccp-Rev Ccp-Rev Ccp-Rev Ccp-Rev Ccp-Rev
(America/Chicago)
08/10 00:00 0.00 3.53 3.74 164 64.22 4802 12.89
08/10 01:00 0.00 3.51 3.76 161 63.95 4826 12.83
08/10 02:00 0.00 3.52 3.74 162 63.68 4849 12.83
08/10 03:00 0.00 3.52 3.74 162 63.37 4851 12.77
08/10 04:00 0.00 3.51 3.74 161 63.16 4856 12.71
08/10 05:00 0.00 3.50 3.73 159 63.00 4851 12.71
08/10 06:00 0.00 3.49 3.73 158 62.78 4855 12.71
08/10 07:00 0.00 3.51 3.72 161 62.60 4851 12.71
08/10 08:00 0.00 3.49 3.74 158 62.46 4847 12.71
08/10 09:00 0.00 3.48 3.70 156 62.38 4849 12.77
08/10 10:00 0.00 3.49 3.71 158 62.49 4851 12.83
08/10 11:00 0.00 3.48 3.71 156 62.69 4853 13.00
08/10 12:00 0.00 3.49 3.70 158 63.45 4860 13.65
08/10 13:00 0.00 3.47 3.70 154 64.04 4878 13.48
08/10 14:00 0.00 3.47 3.69 154 64.81 4889 13.59
08/10 15:00 0.00 3.49 3.69 158 65.98 4896 13.65
08/10 16:00 0.00 3.51 3.71 161 67.68 4907 13.65
08/10 17:00 0.00 3.48 3.70 156 69.67 4914 13.77
08/10 18:00 0.00 3.48 3.70 156 70.86 4907 13.71
08/10 19:00 0.00 3.49 3.72 158 71.53 4898 13.59
08/10 20:00 0.00 3.47 3.71 154 71.31 4912 13.24
08/10 21:00 0.00 3.49 3.72 158 71.02 4921 13.07
08/10 22:00 0.00 3.47 3.69 154 70.75 4918 13.00
08/10 23:00 ---- ---- ---- ---- ---- ---- ----
Data processed at Sun 11Aug2024 04:30 GMT

Parsing this webpage?

Checkout our new Data API! CWMSDataAPI (CDA)

Timeseries IDs (TSIDs)

TSIDs used from left to right in the data table
COOL.Precip-Inc.Total.1Hour.1Hour.Ccp-Rev
COOL.Stage.Inst.1Hour.0.Ccp-Rev
COOL.Stage-Alt.Inst.1Hour.0.Ccp-Rev
COOL.Flow.Inst.1Hour.0.Ccp-Rev
COOL.Temp-Water.Inst.1Hour.0.Ccp-Rev
COOL.Cond.Inst.1Hour.0.Ccp-Rev
COOL.Volt-Battery Load.Inst.1Hour.0.Ccp-Rev

                            

All information presented herein is the property of the government of the United States of America and may be revised or deleted at any time without prior notice. Dissemination of this information without the expressed written consent of the Public Affairs Office, Tulsa District U.S. Army Corps of Engineers is strictly prohibited. These data are gathered electronically and, as presented, have NOT undergone any form of quality control. These data are NOT guaranteed to be valid or correct.